Time;durP1;ratioP1;P1;durP2;ratioP2;P2;SDS_P1;SDS_P2;PMS_P1;PMS_P2;Temp;Humidity;BMP_temperature;BMP_pressure;BME280_temperature;BME280_humidity;BME280_pressure;Samples;Min_cycle;Max_cycle;Signal;HPM_P1;HPM_P2
2022/08/08 00:02:29;;;;;;;;;;;15.70;97.20;;;;;;5016788;28;20023;-82
2022/08/08 00:05:00;;;;;;;;;;;15.70;97.50;;;;;;5003176;28;19947;-85
2022/08/08 00:07:29;;;;;;;;;;;15.60;97.70;;;;;;5009814;28;19932;-81
2022/08/08 00:10:03;;;;;;;;;;;15.60;97.90;;;;;;5011193;28;19929;-82
2022/08/08 00:12:33;;;;;;;;;;;15.60;98.20;;;;;;5010921;28;19924;-85
2022/08/08 00:15:03;;;;;;;;;;;15.60;98.40;;;;;;5012193;28;19968;-81
2022/08/08 00:17:38;;;;;;;;;;;15.50;98.60;;;;;;5027395;28;20341;-83
2022/08/08 00:20:07;;;;;;;;;;;15.40;98.80;;;;;;5002195;28;19979;-84
2022/08/08 00:22:39;;;;;;;;;;;15.40;99.10;;;;;;5024677;28;19999;-80
2022/08/08 00:25:10;;;;;;;;;;;15.30;99.30;;;;;;5008235;28;20351;-81
2022/08/08 00:27:37;;;;;;;;;;;15.30;99.60;;;;;;5009094;28;19929;-82
2022/08/08 00:30:06;;;;;;;;;;;15.20;99.80;;;;;;5025512;28;20274;-81
2022/08/08 00:32:34;;;;;;;;;;;15.10;99.90;;;;;;5006323;28;19936;-83
2022/08/08 00:35:13;;;;;;;;;;;15.10;99.90;;;;;;5025505;28;20007;-81
2022/08/08 00:37:46;;;;;;;;;;;15.10;99.90;;;;;;5027121;28;19932;-81
2022/08/08 00:40:47;;;;;;;;;;;15.00;99.90;;;;;;5011252;28;19949;-82
2022/08/08 00:43:29;;;;;;;;;;;15.00;99.90;;;;;;5010240;28;19933;-82
2022/08/08 00:46:09;;;;;;;;;;;15.00;99.90;;;;;;5018075;28;20569;-82
2022/08/08 00:48:47;;;;;;;;;;;15.00;99.90;;;;;;5026051;28;19933;-81
2022/08/08 00:51:34;;;;;;;;;;;15.00;99.90;;;;;;5007236;28;19937;-82
2022/08/08 00:54:27;;;;;;;;;;;14.90;99.90;;;;;;5025290;28;19944;-83
2022/08/08 00:57:02;;;;;;;;;;;14.90;99.90;;;;;;5025596;28;19929;-82
2022/08/08 00:59:52;;;;;;;;;;;14.90;99.90;;;;;;5030153;28;19935;-79
2022/08/08 01:02:37;;;;;;;;;;;14.90;99.90;;;;;;5013523;28;19929;-80
2022/08/08 01:05:16;;;;;;;;;;;14.80;99.90;;;;;;4967847;28;19925;-80
2022/08/08 01:08:00;;;;;;;;;;;14.80;99.90;;;;;;4994675;28;19936;-79
2022/08/08 01:10:46;;;;;;;;;;;14.70;99.90;;;;;;4996898;28;20040;-79
2022/08/08 01:13:31;;;;;;;;;;;14.70;99.90;;;;;;4997424;28;19936;-79
2022/08/08 01:16:02;;;;;;;;;;;14.70;99.90;;;;;;4996321;28;19962;-79
2022/08/08 01:18:39;;;;;;;;;;;14.70;99.90;;;;;;4997019;28;19929;-79
2022/08/08 01:21:24;;;;;;;;;;;14.60;99.90;;;;;;4996474;28;19929;-79
2022/08/08 01:24:15;;;;;;;;;;;14.60;99.90;;;;;;4984073;28;19926;-79
2022/08/08 01:26:55;;;;;;;;;;;14.50;99.90;;;;;;4997163;28;20344;-79
2022/08/08 01:29:32;;;;;;;;;;;14.50;99.90;;;;;;5019197;28;20340;-79
2022/08/08 01:32:17;;;;;;;;;;;14.50;99.90;;;;;;5016004;28;20020;-79
2022/08/08 01:34:59;;;;;;;;;;;14.40;99.90;;;;;;5016897;28;20504;-79
2022/08/08 01:37:56;;;;;;;;;;;14.40;99.90;;;;;;5012072;28;20394;-80
2022/08/08 01:40:32;;;;;;;;;;;14.40;99.90;;;;;;5007536;28;20024;-83
2022/08/08 01:43:11;;;;;;;;;;;14.40;99.90;;;;;;5003390;28;19963;-81
2022/08/08 01:45:52;;;;;;;;;;;14.40;99.90;;;;;;5012961;28;19929;-80
2022/08/08 01:48:28;;;;;;;;;;;14.40;99.90;;;;;;5018297;28;19929;-81
2022/08/08 01:51:14;;;;;;;;;;;14.40;99.90;;;;;;5006479;28;19925;-81
2022/08/08 01:53:55;;;;;;;;;;;14.30;99.90;;;;;;4996449;28;19929;-82
2022/08/08 01:56:39;;;;;;;;;;;14.30;99.90;;;;;;5028417;28;19948;-82
2022/08/08 01:59:36;;;;;;;;;;;14.20;99.90;;;;;;5009714;28;19929;-82
2022/08/08 02:02:21;;;;;;;;;;;14.20;99.90;;;;;;5009361;28;19936;-81
2022/08/08 02:08:06;;;;;;;;;;;14.10;99.90;;;;;;4999747;28;19973;-80
2022/08/08 02:10:44;;;;;;;;;;;14.10;99.90;;;;;;5005475;28;20476;-79
2022/08/08 02:13:14;;;;;;;;;;;14.00;99.90;;;;;;5002324;28;19929;-79
2022/08/08 02:15:45;;;;;;;;;;;14.00;99.90;;;;;;5012350;28;19932;-79
2022/08/08 02:18:26;;;;;;;;;;;14.00;99.90;;;;;;5014494;28;19998;-78
2022/08/08 02:23:47;;;;;;;;;;;13.90;99.90;;;;;;5000101;28;19929;-80
2022/08/08 02:26:23;;;;;;;;;;;13.80;99.90;;;;;;5005003;28;19975;-79
2022/08/08 02:28:59;;;;;;;;;;;13.80;99.90;;;;;;5016892;28;19987;-80
2022/08/08 02:31:38;;;;;;;;;;;13.70;99.90;;;;;;5005963;28;19933;-81
2022/08/08 02:34:20;;;;;;;;;;;13.70;99.90;;;;;;5011016;28;20475;-80
2022/08/08 02:36:55;;;;;;;;;;;13.70;99.90;;;;;;5009117;28;19954;-81
2022/08/08 02:39:39;;;;;;;;;;;13.60;99.90;;;;;;5000438;28;19925;-80
2022/08/08 02:42:25;;;;;;;;;;;13.60;99.90;;;;;;5007658;28;19969;-80
2022/08/08 02:45:02;;;;;;;;;;;13.50;99.90;;;;;;4993679;28;19925;-80
2022/08/08 02:48:03;;;;;;;;;;;13.50;99.90;;;;;;5010220;28;19929;-80
2022/08/08 02:50:53;;;;;;;;;;;13.50;99.90;;;;;;5011037;28;19929;-80
2022/08/08 02:53:34;;;;;;;;;;;13.40;99.90;;;;;;5009978;28;20027;-80
2022/08/08 02:56:22;;;;;;;;;;;13.40;99.90;;;;;;5010283;28;19976;-80
2022/08/08 02:59:21;;;;;;;;;;;13.40;99.90;;;;;;5011353;28;19929;-80
2022/08/08 03:02:06;;;;;;;;;;;13.40;99.90;;;;;;5009032;28;19932;-81
2022/08/08 03:04:48;;;;;;;;;;;13.30;99.90;;;;;;5008737;28;19930;-81
2022/08/08 03:07:31;;;;;;;;;;;13.30;99.90;;;;;;5009587;28;20293;-81
2022/08/08 03:10:16;;;;;;;;;;;13.30;99.90;;;;;;5002559;28;19955;-81
2022/08/08 03:12:52;;;;;;;;;;;13.20;99.90;;;;;;5009460;28;20305;-81
2022/08/08 03:15:35;;;;;;;;;;;13.20;99.90;;;;;;5009935;28;19937;-81
2022/08/08 03:18:06;;;;;;;;;;;13.20;99.90;;;;;;5010387;28;19968;-81
2022/08/08 03:20:49;;;;;;;;;;;13.20;99.90;;;;;;5005830;28;20389;-80
2022/08/08 03:23:36;;;;;;;;;;;13.20;99.90;;;;;;5007243;28;19941;-80
2022/08/08 03:26:06;;;;;;;;;;;13.20;99.90;;;;;;5006739;28;20394;-80
2022/08/08 03:28:40;;;;;;;;;;;13.10;99.90;;;;;;5002555;28;21519;-80
2022/08/08 03:33:52;;;;;;;;;;;13.10;99.90;;;;;;5002748;28;19929;-81
2022/08/08 03:36:22;;;;;;;;;;;13.00;99.90;;;;;;5005450;28;19925;-81
2022/08/08 03:38:51;;;;;;;;;;;13.00;99.90;;;;;;5005297;28;19976;-81
2022/08/08 03:41:22;;;;;;;;;;;13.00;99.90;;;;;;5004978;28;19936;-81
2022/08/08 03:44:05;;;;;;;;;;;12.90;99.90;;;;;;5020540;28;20600;-81
2022/08/08 03:46:56;;;;;;;;;;;12.90;99.90;;;;;;4992566;28;20000;-81
2022/08/08 03:49:33;;;;;;;;;;;13.30;99.90;;;;;;5004409;28;19933;-80
2022/08/08 03:52:03;;;;;;;;;;;12.80;99.90;;;;;;5002221;28;19933;-80
2022/08/08 03:54:32;;;;;;;;;;;12.80;99.90;;;;;;5005371;28;20462;-80
2022/08/08 03:57:02;;;;;;;;;;;12.80;99.90;;;;;;5016667;28;19940;-79
2022/08/08 03:59:55;;;;;;;;;;;12.70;99.90;;;;;;5019232;28;19980;-78
2022/08/08 04:02:23;;;;;;;;;;;12.70;99.90;;;;;;4987061;28;20075;-78
2022/08/08 04:04:52;;;;;;;;;;;12.70;99.90;;;;;;5023323;28;19939;-79
2022/08/08 04:07:19;;;;;;;;;;;12.70;99.90;;;;;;5006893;28;19960;-81
2022/08/08 04:09:56;;;;;;;;;;;12.70;99.90;;;;;;5006717;28;19967;-81
2022/08/08 04:12:24;;;;;;;;;;;12.70;99.90;;;;;;5015935;28;20004;-79
2022/08/08 04:14:51;;;;;;;;;;;12.70;99.90;;;;;;5023221;28;21212;-80
2022/08/08 04:17:22;;;;;;;;;;;12.70;99.90;;;;;;5003043;28;19929;-80
2022/08/08 04:19:49;;;;;;;;;;;12.70;99.90;;;;;;4996079;28;20305;-81
2022/08/08 04:22:16;;;;;;;;;;;12.70;99.90;;;;;;5007339;28;20186;-80
2022/08/08 04:24:44;;;;;;;;;;;12.70;99.90;;;;;;5014372;28;19929;-80
2022/08/08 04:27:13;;;;;;;;;;;12.70;99.90;;;;;;5015814;28;19933;-80
2022/08/08 04:29:40;;;;;;;;;;;12.80;99.90;;;;;;5009852;28;20479;-79
2022/08/08 04:32:13;;;;;;;;;;;12.70;99.90;;;;;;5008801;28;19922;-81
2022/08/08 04:34:42;;;;;;;;;;;12.80;99.90;;;;;;5044806;28;19933;-81
2022/08/08 04:37:09;;;;;;;;;;;12.80;99.90;;;;;;5024568;28;19936;-81
2022/08/08 04:39:36;;;;;;;;;;;12.80;99.90;;;;;;5029445;23;19929;-75
2022/08/08 04:42:04;;;;;;;;;;;12.90;99.90;;;;;;5005404;28;19929;-79
2022/08/08 04:44:32;;;;;;;;;;;12.90;99.90;;;;;;5016534;28;19925;-77
2022/08/08 04:46:59;;;;;;;;;;;13.00;99.90;;;;;;5013703;28;19929;-77
2022/08/08 04:49:26;;;;;;;;;;;13.00;99.90;;;;;;5033903;28;19996;-82
2022/08/08 04:51:52;;;;;;;;;;;13.10;99.90;;;;;;5015422;28;19929;-83
2022/08/08 04:54:19;;;;;;;;;;;13.10;99.90;;;;;;5014585;28;19929;-80
2022/08/08 04:56:46;;;;;;;;;;;13.20;99.90;;;;;;5026751;28;19933;-81
2022/08/08 04:59:13;;;;;;;;;;;13.30;99.90;;;;;;5033813;28;19993;-82
2022/08/08 05:01:42;;;;;;;;;;;13.40;99.90;;;;;;5024814;28;19937;-79
2022/08/08 05:04:09;;;;;;;;;;;13.40;99.90;;;;;;5016207;28;19944;-79
2022/08/08 05:06:40;;;;;;;;;;;13.50;99.90;;;;;;5018146;28;20469;-80
2022/08/08 05:09:08;;;;;;;;;;;13.60;99.90;;;;;;5017325;28;19929;-80
2022/08/08 05:11:37;;;;;;;;;;;13.70;99.90;;;;;;5021719;28;20164;-80
2022/08/08 05:14:04;;;;;;;;;;;13.80;99.90;;;;;;5020386;28;19928;-81
2022/08/08 05:16:33;;;;;;;;;;;13.90;99.90;;;;;;5021741;28;19961;-80
2022/08/08 05:19:02;;;;;;;;;;;14.00;99.90;;;;;;5037856;28;20418;-79
2022/08/08 05:21:30;;;;;;;;;;;14.10;99.90;;;;;;5015648;28;20322;-79
2022/08/08 05:23:56;;;;;;;;;;;14.20;99.90;;;;;;5026353;28;19983;-79
2022/08/08 05:26:23;;;;;;;;;;;14.40;99.90;;;;;;5013938;28;19936;-79
2022/08/08 05:28:50;;;;;;;;;;;14.50;99.90;;;;;;5031517;28;19925;-81
2022/08/08 05:31:17;;;;;;;;;;;14.70;99.90;;;;;;5014387;28;20317;-79
2022/08/08 05:33:44;;;;;;;;;;;14.80;99.90;;;;;;5031467;28;19959;-80
2022/08/08 05:36:14;;;;;;;;;;;15.00;99.90;;;;;;5031619;28;19960;-78
2022/08/08 05:38:47;;;;;;;;;;;15.60;99.90;;;;;;5030721;28;19964;-80
2022/08/08 05:41:16;;;;;;;;;;;15.50;99.90;;;;;;5016028;28;19943;-78
2022/08/08 05:43:45;;;;;;;;;;;16.60;99.90;;;;;;5033513;28;19964;-79
2022/08/08 05:46:13;;;;;;;;;;;18.00;99.90;;;;;;5015182;28;19960;-79
2022/08/08 05:48:41;;;;;;;;;;;19.30;99.90;;;;;;5015662;28;20380;-78
2022/08/08 05:51:11;;;;;;;;;;;20.30;99.90;;;;;;5023557;28;19940;-76
2022/08/08 05:53:38;;;;;;;;;;;21.50;99.90;;;;;;5031085;28;19925;-77
2022/08/08 05:56:06;;;;;;;;;;;22.70;99.90;;;;;;5029166;28;20456;-76
2022/08/08 05:58:33;;;;;;;;;;;24.00;99.90;;;;;;5012387;28;19936;-78
2022/08/08 06:01:01;;;;;;;;;;;25.30;99.90;;;;;;5013766;28;20189;-77
2022/08/08 06:03:29;;;;;;;;;;;26.20;99.90;;;;;;5014493;28;20018;-77
2022/08/08 06:05:58;;;;;;;;;;;26.90;99.90;;;;;;5012704;28;19929;-78
2022/08/08 06:08:27;;;;;;;;;;;27.80;99.90;;;;;;5537026;23;19977;-77
2022/08/08 06:10:58;;;;;;;;;;;27.70;99.90;;;;;;5008827;28;20405;-78
2022/08/08 06:13:27;;;;;;;;;;;28.40;99.90;;;;;;4997702;28;19925;-78
2022/08/08 06:15:55;;;;;;;;;;;29.00;99.90;;;;;;4998482;28;20388;-78
2022/08/08 06:18:28;;;;;;;;;;;29.40;99.90;;;;;;5006214;28;20346;-78
2022/08/08 06:20:57;;;;;;;;;;;30.10;99.90;;;;;;4988301;28;19993;-78
2022/08/08 06:23:26;;;;;;;;;;;30.80;99.90;;;;;;5016820;23;19929;-83
2022/08/08 06:26:01;;;;;;;;;;;31.60;99.90;;;;;;5017503;28;19984;-82
2022/08/08 06:28:30;;;;;;;;;;;32.20;99.90;;;;;;5029651;28;20334;-82
2022/08/08 06:30:59;;;;;;;;;;;32.60;97.50;;;;;;5030195;28;19932;-83
2022/08/08 06:33:28;;;;;;;;;;;32.60;96.50;;;;;;5016788;28;19964;-83
2022/08/08 06:35:56;;;;;;;;;;;33.10;95.40;;;;;;5022819;28;19979;-84
2022/08/08 06:38:27;;;;;;;;;;;33.40;93.20;;;;;;5014340;28;19979;-85
2022/08/08 06:41:00;;;;;;;;;;;33.30;89.60;;;;;;5016894;28;19936;-85
2022/08/08 06:43:32;;;;;;;;;;;32.60;89.70;;;;;;5030268;28;19931;-85
2022/08/08 06:46:02;;;;;;;;;;;32.10;87.50;;;;;;5034449;28;20393;-84
2022/08/08 06:48:32;;;;;;;;;;;31.70;88.00;;;;;;5015703;28;20397;-84
2022/08/08 06:51:02;;;;;;;;;;;31.40;86.70;;;;;;5019077;28;19953;-82
2022/08/08 06:53:29;;;;;;;;;;;31.40;85.70;;;;;;5022372;28;19929;-82
2022/08/08 06:55:57;;;;;;;;;;;31.60;85.70;;;;;;5010073;28;19980;-80
2022/08/08 06:58:26;;;;;;;;;;;32.00;86.00;;;;;;5019335;28;19929;-82
2022/08/08 07:00:55;;;;;;;;;;;32.50;83.50;;;;;;5018755;28;19929;-83
2022/08/08 07:03:26;;;;;;;;;;;32.70;81.30;;;;;;5002445;28;19983;-81
2022/08/08 07:05:55;;;;;;;;;;;33.00;82.10;;;;;;5008848;28;19941;-83
2022/08/08 07:08:25;;;;;;;;;;;33.70;81.30;;;;;;5029419;28;19929;-84
2022/08/08 07:10:57;;;;;;;;;;;33.90;78.80;;;;;;5009723;28;19929;-85
2022/08/08 07:13:27;;;;;;;;;;;34.10;77.60;;;;;;5008484;28;19933;-85
2022/08/08 07:16:00;;;;;;;;;;;34.30;76.50;;;;;;5008596;28;19929;-82
2022/08/08 07:18:34;;;;;;;;;;;34.60;76.20;;;;;;5009444;28;19929;-84
2022/08/08 07:21:03;;;;;;;;;;;34.90;74.70;;;;;;5022240;28;19936;-83
2022/08/08 07:23:36;;;;;;;;;;;35.20;74.50;;;;;;5016852;28;19936;-83
2022/08/08 07:26:03;;;;;;;;;;;35.60;74.40;;;;;;5007799;28;19933;-86
2022/08/08 07:28:33;;;;;;;;;;;35.90;72.30;;;;;;5006485;28;19979;-84
2022/08/08 07:31:06;;;;;;;;;;;36.40;71.40;;;;;;5001312;28;19925;-84
2022/08/08 07:33:34;;;;;;;;;;;36.60;68.40;;;;;;5008108;28;19933;-81
2022/08/08 07:36:04;;;;;;;;;;;36.50;67.90;;;;;;5011340;28;19936;-82
2022/08/08 07:38:33;;;;;;;;;;;36.10;65.30;;;;;;5005627;28;20004;-83
2022/08/08 07:41:04;;;;;;;;;;;35.50;66.40;;;;;;5006418;28;20213;-83
2022/08/08 07:43:34;;;;;;;;;;;35.10;65.50;;;;;;5005278;28;19944;-82
2022/08/08 07:46:02;;;;;;;;;;;34.60;66.40;;;;;;5003366;28;19983;-80
2022/08/08 07:48:31;;;;;;;;;;;34.30;66.70;;;;;;4999413;28;19981;-80
2022/08/08 07:50:59;;;;;;;;;;;34.10;65.60;;;;;;4999010;28;19929;-80
2022/08/08 07:53:33;;;;;;;;;;;33.50;66.30;;;;;;5004076;28;20420;-81
2022/08/08 07:56:03;;;;;;;;;;;33.30;67.70;;;;;;5008851;28;19933;-82
2022/08/08 07:58:32;;;;;;;;;;;33.40;67.50;;;;;;5007602;28;19933;-83
2022/08/08 08:01:06;;;;;;;;;;;33.60;67.10;;;;;;5002407;28;19929;-82
2022/08/08 08:03:43;;;;;;;;;;;33.90;67.10;;;;;;4996472;28;19936;-82
2022/08/08 08:06:14;;;;;;;;;;;34.30;67.20;;;;;;5019754;28;19935;-81
2022/08/08 08:08:47;;;;;;;;;;;34.50;66.00;;;;;;5020418;28;19929;-83
2022/08/08 08:11:15;;;;;;;;;;;34.60;65.60;;;;;;5013857;28;19929;-85
2022/08/08 08:13:49;;;;;;;;;;;34.70;64.50;;;;;;5010440;28;20019;-81
2022/08/08 08:16:18;;;;;;;;;;;34.30;64.10;;;;;;5015118;28;19937;-81
2022/08/08 08:18:55;;;;;;;;;;;34.30;64.80;;;;;;5011899;28;19939;-82
2022/08/08 08:21:23;;;;;;;;;;;34.40;64.20;;;;;;5009509;28;20020;-84
2022/08/08 08:23:51;;;;;;;;;;;34.50;64.90;;;;;;5013283;28;19925;-86
2022/08/08 08:26:18;;;;;;;;;;;34.70;63.80;;;;;;5011550;28;19933;-86
2022/08/08 08:28:45;;;;;;;;;;;34.60;62.20;;;;;;5010870;28;19937;-84
2022/08/08 08:31:12;;;;;;;;;;;34.40;62.60;;;;;;5012203;28;19937;-85
2022/08/08 08:33:40;;;;;;;;;;;34.40;62.50;;;;;;5013925;28;19925;-86
2022/08/08 08:36:10;;;;;;;;;;;34.20;62.10;;;;;;5016451;28;19929;-85
2022/08/08 08:38:39;;;;;;;;;;;33.90;61.70;;;;;;5010639;28;19933;-85
2022/08/08 08:41:12;;;;;;;;;;;33.50;62.10;;;;;;5012794;28;19987;-84
2022/08/08 08:43:41;;;;;;;;;;;33.40;63.40;;;;;;5014325;28;19960;-84
2022/08/08 08:46:09;;;;;;;;;;;33.40;61.60;;;;;;5013976;28;19952;-84
2022/08/08 08:48:38;;;;;;;;;;;33.20;61.80;;;;;;5013788;28;19948;-84
2022/08/08 08:51:08;;;;;;;;;;;33.00;62.40;;;;;;5011934;28;19956;-86
2022/08/08 08:53:42;;;;;;;;;;;33.30;62.50;;;;;;5009560;28;19992;-84
2022/08/08 08:56:13;;;;;;;;;;;33.20;62.20;;;;;;5012599;28;19936;-84
2022/08/08 08:58:45;;;;;;;;;;;33.00;63.20;;;;;;5014713;28;20078;-85
2022/08/08 09:01:16;;;;;;;;;;;33.10;63.20;;;;;;5011949;28;19929;-84
2022/08/08 09:03:49;;;;;;;;;;;33.30;63.70;;;;;;5029184;28;19933;-85
2022/08/08 09:06:20;;;;;;;;;;;33.40;63.40;;;;;;5012246;28;19929;-85
2022/08/08 09:08:53;;;;;;;;;;;33.70;63.00;;;;;;5022026;28;19956;-86
2022/08/08 09:11:21;;;;;;;;;;;33.70;63.00;;;;;;5006237;28;20308;-88
2022/08/08 09:13:53;;;;;;;;;;;33.70;62.50;;;;;;5008405;28;19937;-85
2022/08/08 09:16:24;;;;;;;;;;;33.50;61.30;;;;;;5008511;28;20055;-82
2022/08/08 09:18:54;;;;;;;;;;;33.40;62.00;;;;;;5004462;28;19973;-82
2022/08/08 09:21:21;;;;;;;;;;;33.30;61.80;;;;;;5005440;28;20024;-82
2022/08/08 09:23:50;;;;;;;;;;;33.10;61.40;;;;;;5001929;28;19929;-81
2022/08/08 09:26:19;;;;;;;;;;;33.00;62.10;;;;;;5000283;28;19925;-82
2022/08/08 09:28:46;;;;;;;;;;;32.90;61.50;;;;;;4996029;28;19938;-82
2022/08/08 09:31:23;;;;;;;;;;;32.90;61.30;;;;;;4996252;28;19929;-82
2022/08/08 09:33:52;;;;;;;;;;;32.60;62.00;;;;;;5000279;28;20020;-82
2022/08/08 09:36:21;;;;;;;;;;;32.60;62.40;;;;;;5009447;28;19933;-82
2022/08/08 09:38:56;;;;;;;;;;;32.50;61.50;;;;;;4998934;28;19929;-81
2022/08/08 09:41:33;;;;;;;;;;;32.40;62.20;;;;;;4998346;28;19926;-82
2022/08/08 09:44:04;;;;;;;;;;;32.30;62.30;;;;;;5009860;28;19971;-81
2022/08/08 09:46:33;;;;;;;;;;;32.10;61.50;;;;;;4995667;28;19956;-82
2022/08/08 09:49:02;;;;;;;;;;;31.60;60.70;;;;;;4998239;28;19930;-81
2022/08/08 09:51:31;;;;;;;;;;;30.80;61.00;;;;;;4985521;28;19971;-81
2022/08/08 09:54:02;;;;;;;;;;;30.10;63.20;;;;;;4988035;28;19937;-80
2022/08/08 09:56:31;;;;;;;;;;;29.80;63.80;;;;;;4999879;28;19934;-79
2022/08/08 09:59:01;;;;;;;;;;;29.50;63.10;;;;;;4974916;28;20018;-79
2022/08/08 10:01:31;;;;;;;;;;;29.00;63.60;;;;;;4973834;28;19964;-78
2022/08/08 10:03:58;;;;;;;;;;;28.40;64.80;;;;;;4994154;28;19929;-79
2022/08/08 10:06:26;;;;;;;;;;;27.90;66.10;;;;;;4995446;28;19925;-83
2022/08/08 10:08:53;;;;;;;;;;;27.60;67.30;;;;;;5017455;28;20020;-83
2022/08/08 10:11:22;;;;;;;;;;;27.50;67.80;;;;;;5000961;28;19935;-83
2022/08/08 10:13:53;;;;;;;;;;;26.10;67.30;;;;;;5018821;28;20415;-83
2022/08/08 10:16:20;;;;;;;;;;;27.20;68.80;;;;;;5001990;28;19992;-84
2022/08/08 10:18:47;;;;;;;;;;;27.10;69.00;;;;;;5014577;28;20078;-82
2022/08/08 10:21:17;;;;;;;;;;;27.00;70.50;;;;;;5017879;28;19929;-82
2022/08/08 10:23:44;;;;;;;;;;;26.90;69.60;;;;;;5014840;28;19934;-82
2022/08/08 10:26:16;;;;;;;;;;;26.80;70.00;;;;;;5024667;28;20585;-82
2022/08/08 10:28:52;;;;;;;;;;;26.70;70.40;;;;;;5020979;28;20308;-84
2022/08/08 10:34:09;;;;;;;;;;;26.80;70.40;;;;;;5009502;28;19979;-81
2022/08/08 10:36:38;;;;;;;;;;;26.70;70.50;;;;;;5017790;28;19929;-84
2022/08/08 10:39:06;;;;;;;;;;;26.80;70.70;;;;;;5012889;28;20330;-83
2022/08/08 10:41:35;;;;;;;;;;;26.80;70.90;;;;;;5008597;28;19934;-82
2022/08/08 10:44:04;;;;;;;;;;;26.80;71.00;;;;;;5028382;28;19926;-81
2022/08/08 10:46:31;;;;;;;;;;;26.80;70.10;;;;;;5028020;28;21756;-81
2022/08/08 10:48:58;;;;;;;;;;;26.80;70.70;;;;;;5013854;28;19939;-81
2022/08/08 10:51:26;;;;;;;;;;;26.80;70.80;;;;;;5010357;28;19925;-81
2022/08/08 10:53:55;;;;;;;;;;;26.90;70.70;;;;;;5025655;28;19929;-81
2022/08/08 10:56:22;;;;;;;;;;;26.80;70.20;;;;;;5015276;28;19955;-82
2022/08/08 10:58:56;;;;;;;;;;;27.00;70.70;;;;;;5009162;28;19983;-82
2022/08/08 11:01:29;;;;;;;;;;;27.00;71.30;;;;;;5012745;28;19937;-81
2022/08/08 11:03:57;;;;;;;;;;;27.10;70.90;;;;;;5029539;28;19933;-82
2022/08/08 11:06:28;;;;;;;;;;;27.10;70.80;;;;;;5029662;28;20334;-81
2022/08/08 11:09:00;;;;;;;;;;;27.20;71.00;;;;;;5019879;28;19936;-81
2022/08/08 11:11:36;;;;;;;;;;;27.30;70.70;;;;;;5029344;28;19933;-82
2022/08/08 11:14:03;;;;;;;;;;;27.30;71.10;;;;;;5028383;28;20479;-83
2022/08/08 11:16:34;;;;;;;;;;;27.40;71.10;;;;;;5032051;28;19940;-82
2022/08/08 11:19:01;;;;;;;;;;;27.50;71.50;;;;;;5010950;28;20455;-82
2022/08/08 11:21:29;;;;;;;;;;;27.60;71.20;;;;;;5011443;28;19932;-82
2022/08/08 11:23:58;;;;;;;;;;;28.30;71.00;;;;;;5030010;28;20018;-82
2022/08/08 11:26:27;;;;;;;;;;;27.70;70.10;;;;;;5030565;28;20040;-82
2022/08/08 11:28:57;;;;;;;;;;;27.80;69.80;;;;;;5008237;28;19943;-82
2022/08/08 11:31:26;;;;;;;;;;;27.50;69.50;;;;;;5004485;28;19925;-82
2022/08/08 11:33:57;;;;;;;;;;;27.50;70.80;;;;;;5017771;28;20321;-82
2022/08/08 11:36:24;;;;;;;;;;;27.60;71.30;;;;;;5004645;28;19925;-82
2022/08/08 11:38:52;;;;;;;;;;;27.90;72.30;;;;;;5006127;28;20285;-82
2022/08/08 11:41:20;;;;;;;;;;;27.90;71.30;;;;;;5030105;28;20614;-81
2022/08/08 11:43:47;;;;;;;;;;;28.00;71.20;;;;;;5014430;28;20367;-82
2022/08/08 11:46:15;;;;;;;;;;;28.00;70.80;;;;;;5032846;28;19925;-81
2022/08/08 11:48:47;;;;;;;;;;;28.00;70.90;;;;;;5009820;28;19929;-82
2022/08/08 11:51:19;;;;;;;;;;;28.00;70.50;;;;;;5030713;28;19926;-82
2022/08/08 11:53:46;;;;;;;;;;;28.00;70.00;;;;;;5022127;28;19940;-82
2022/08/08 11:56:18;;;;;;;;;;;28.20;70.30;;;;;;5035279;28;19925;-82
2022/08/08 11:58:45;;;;;;;;;;;28.40;70.60;;;;;;5009331;28;19976;-82
2022/08/08 12:01:12;;;;;;;;;;;28.60;70.60;;;;;;5018806;28;19992;-82
2022/08/08 12:03:46;;;;;;;;;;;28.90;70.50;;;;;;5014623;28;19953;-82
2022/08/08 12:06:23;;;;;;;;;;;29.00;70.50;;;;;;5035226;28;20034;-81
2022/08/08 12:08:51;;;;;;;;;;;29.20;70.30;;;;;;5027220;28;20493;-81
2022/08/08 12:11:19;;;;;;;;;;;29.40;70.00;;;;;;5062766;28;19944;-81
2022/08/08 12:13:48;;;;;;;;;;;29.50;69.70;;;;;;5040795;28;20463;-81
2022/08/08 12:16:16;;;;;;;;;;;29.50;69.40;;;;;;5042144;28;19936;-81
2022/08/08 12:18:44;;;;;;;;;;;29.30;68.70;;;;;;5041881;28;19928;-81
2022/08/08 12:21:20;;;;;;;;;;;29.10;68.80;;;;;;5040940;28;19965;-81
2022/08/08 12:23:49;;;;;;;;;;;28.90;69.00;;;;;;5041274;28;19929;-80
2022/08/08 12:26:19;;;;;;;;;;;28.90;68.90;;;;;;5033095;28;19937;-80
2022/08/08 12:28:56;;;;;;;;;;;28.70;69.60;;;;;;5025123;28;19929;-80
2022/08/08 12:31:33;;;;;;;;;;;28.60;70.00;;;;;;5029510;28;20383;-81
2022/08/08 12:34:00;;;;;;;;;;;28.50;70.30;;;;;;5026081;28;19975;-81
2022/08/08 12:36:38;;;;;;;;;;;28.60;70.90;;;;;;5043632;28;19948;-81
2022/08/08 12:39:06;;;;;;;;;;;28.90;71.00;;;;;;5026858;28;19929;-81
2022/08/08 12:41:37;;;;;;;;;;;29.20;70.30;;;;;;5025705;28;19929;-80
2022/08/08 12:44:05;;;;;;;;;;;29.70;68.60;;;;;;5024351;28;19932;-80
2022/08/08 12:46:33;;;;;;;;;;;29.70;69.00;;;;;;5041438;28;19960;-80
2022/08/08 12:49:05;;;;;;;;;;;29.80;69.20;;;;;;5024614;28;19925;-80
2022/08/08 12:51:49;;;;;;;;;;;29.80;69.00;;;;;;5041959;28;19936;-80
2022/08/08 12:54:22;;;;;;;;;;;29.80;68.90;;;;;;5040020;28;20313;-80
2022/08/08 12:56:50;;;;;;;;;;;29.90;68.70;;;;;;5022516;28;19933;-80
2022/08/08 12:59:19;;;;;;;;;;;30.00;68.20;;;;;;5041331;28;19929;-80
2022/08/08 13:01:52;;;;;;;;;;;30.00;68.70;;;;;;5023405;28;20258;-80
2022/08/08 13:04:20;;;;;;;;;;;30.20;68.90;;;;;;5024880;28;19975;-81
2022/08/08 13:06:54;;;;;;;;;;;30.20;68.00;;;;;;5029289;28;19951;-80
2022/08/08 13:09:42;;;;;;;;;;;30.30;67.40;;;;;;5052744;28;19925;-80
2022/08/08 13:15:33;;;;;;;;;;;30.10;66.10;;;;;;5040634;28;19921;-82
2022/08/08 13:18:04;;;;;;;;;;;29.90;66.80;;;;;;5049108;28;19913;-82
2022/08/08 13:20:47;;;;;;;;;;;30.00;67.30;;;;;;5057187;28;19925;-83
2022/08/08 13:23:18;;;;;;;;;;;30.00;66.90;;;;;;5029774;28;19937;-84
2022/08/08 13:25:58;;;;;;;;;;;30.00;66.50;;;;;;5025629;28;19925;-83
2022/08/08 13:28:31;;;;;;;;;;;30.00;65.80;;;;;;5020309;28;19936;-82
2022/08/08 13:31:06;;;;;;;;;;;29.80;66.50;;;;;;5044753;28;19929;-83
2022/08/08 13:33:52;;;;;;;;;;;29.90;67.20;;;;;;5037149;28;19940;-82
2022/08/08 13:36:33;;;;;;;;;;;30.10;67.00;;;;;;5036003;28;19925;-83
2022/08/08 13:42:16;;;;;;;;;;;30.30;65.70;;;;;;5053975;28;19933;-83
2022/08/08 13:44:47;;;;;;;;;;;30.20;65.60;;;;;;5022364;28;19925;-83
2022/08/08 13:47:25;;;;;;;;;;;30.20;65.40;;;;;;5035062;28;19930;-82
2022/08/08 13:50:32;;;;;;;;;;;30.10;65.10;;;;;;5042129;28;20025;-83
2022/08/08 13:53:02;;;;;;;;;;;29.90;65.00;;;;;;5019916;28;19983;-82
2022/08/08 13:55:29;;;;;;;;;;;29.80;65.10;;;;;;5016136;28;19933;-82
2022/08/08 13:58:02;;;;;;;;;;;29.60;64.90;;;;;;5038399;28;19930;-81
2022/08/08 14:00:32;;;;;;;;;;;29.40;65.70;;;;;;5013212;28;19940;-81
2022/08/08 14:03:00;;;;;;;;;;;29.40;65.60;;;;;;5016077;28;20733;-81
2022/08/08 14:05:27;;;;;;;;;;;29.50;66.50;;;;;;5024471;28;19925;-81
2022/08/08 14:07:54;;;;;;;;;;;29.70;66.40;;;;;;5026519;28;19929;-81
2022/08/08 14:10:22;;;;;;;;;;;29.80;65.50;;;;;;5025986;28;19929;-81
2022/08/08 14:12:51;;;;;;;;;;;29.80;65.90;;;;;;5026661;28;19940;-82
2022/08/08 14:15:27;;;;;;;;;;;29.80;64.80;;;;;;5011351;28;20443;-81
2022/08/08 14:17:55;;;;;;;;;;;29.70;65.50;;;;;;5025808;28;19937;-81
2022/08/08 14:20:30;;;;;;;;;;;29.80;65.70;;;;;;5007589;28;20501;-81
2022/08/08 14:23:03;;;;;;;;;;;29.90;65.30;;;;;;5015354;28;20365;-81
2022/08/08 14:25:30;;;;;;;;;;;30.00;65.10;;;;;;5016540;28;19932;-81
2022/08/08 14:28:07;;;;;;;;;;;30.00;64.90;;;;;;5016860;28;19925;-81
2022/08/08 14:30:35;;;;;;;;;;;30.20;64.80;;;;;;5007438;28;19926;-81
2022/08/08 14:33:03;;;;;;;;;;;30.20;63.90;;;;;;5020869;28;19929;-81
2022/08/08 14:35:30;;;;;;;;;;;28.90;62.80;;;;;;5021578;28;20432;-81
2022/08/08 14:38:01;;;;;;;;;;;29.80;63.70;;;;;;5022906;28;20691;-81
2022/08/08 14:40:28;;;;;;;;;;;29.70;63.90;;;;;;5021921;28;19929;-82
2022/08/08 14:42:57;;;;;;;;;;;29.50;64.00;;;;;;5039710;28;19940;-81
2022/08/08 14:45:25;;;;;;;;;;;29.40;64.00;;;;;;5022145;28;19929;-82
2022/08/08 14:47:56;;;;;;;;;;;29.20;64.00;;;;;;5022235;28;19989;-81
2022/08/08 14:50:26;;;;;;;;;;;29.20;64.50;;;;;;5021815;28;19925;-82
2022/08/08 14:52:54;;;;;;;;;;;29.30;64.40;;;;;;5038293;28;19947;-82
2022/08/08 14:55:24;;;;;;;;;;;29.20;64.40;;;;;;5020332;28;20040;-82
2022/08/08 14:57:51;;;;;;;;;;;29.20;64.60;;;;;;5040259;28;20244;-81
2022/08/08 15:00:19;;;;;;;;;;;29.20;64.20;;;;;;5038870;28;20396;-82
2022/08/08 15:02:46;;;;;;;;;;;29.20;64.30;;;;;;5033705;28;19929;-82
2022/08/08 15:05:16;;;;;;;;;;;29.00;64.50;;;;;;5021475;28;19949;-82